Time;durP1;ratioP1;P1;durP2;ratioP2;P2;SDS_P1;SDS_P2;PMS_P1;PMS_P2;Temp;Humidity;BMP_temperature;BMP_pressure;BME280_temperature;BME280_humidity;BME280_pressure;Samples;Min_cycle;Max_cycle;Signal;HPM_P1;HPM_P2
2023/06/28 00:01:54;;;;;;;9.98;3.10;;;;;;;;;;5030648;28;99732;-71
2023/06/28 00:04:21;;;;;;;6.80;2.97;;;;;;;;;;5029967;28;99568;-72
2023/06/28 00:06:47;;;;;;;8.60;2.60;;;;;;;;;;5029680;27;98467;-71
2023/06/28 00:09:14;;;;;;;8.00;2.55;;;;;;;;;;5030362;27;100726;-71
2023/06/28 00:11:40;;;;;;;7.82;2.63;;;;;;;;;;5033561;28;99307;-71
2023/06/28 00:14:07;;;;;;;9.57;2.60;;;;;;;;;;5029671;28;99929;-71
2023/06/28 00:16:33;;;;;;;9.50;2.72;;;;;;;;;;5029959;28;98741;-71
2023/06/28 00:19:00;;;;;;;5.55;2.35;;;;;;;;;;5030289;28;98499;-72
2023/06/28 00:21:27;;;;;;;7.13;2.47;;;;;;;;;;5030120;28;100389;-72
2023/06/28 00:23:54;;;;;;;7.60;2.47;;;;;;;;;;5028354;28;100319;-71
2023/06/28 00:26:21;;;;;;;9.02;2.67;;;;;;;;;;5030306;28;98491;-71
2023/06/28 00:28:48;;;;;;;8.55;2.33;;;;;;;;;;5029292;28;99337;-71
2023/06/28 00:31:14;;;;;;;9.40;2.13;;;;;;;;;;5029212;28;99632;-71
2023/06/28 00:33:41;;;;;;;10.43;2.75;;;;;;;;;;5033055;28;98645;-71
2023/06/28 00:36:07;;;;;;;7.05;2.50;;;;;;;;;;5029028;28;100019;-71
2023/06/28 00:38:37;;;;;;;8.40;2.33;;;;;;;;;;5029600;27;98969;-71
2023/06/28 00:41:03;;;;;;;9.73;2.70;;;;;;;;;;5030276;28;100512;-71
2023/06/28 00:43:29;;;;;;;11.55;3.00;;;;;;;;;;5029758;28;100565;-71
2023/06/28 00:45:56;;;;;;;9.00;3.22;;;;;;;;;;5029408;28;98656;-71
2023/06/28 00:48:22;;;;;;;6.88;2.75;;;;;;;;;;5028848;28;99147;-71
2023/06/28 00:50:49;;;;;;;12.90;2.72;;;;;;;;;;5029221;28;102202;-72
2023/06/28 00:53:16;;;;;;;6.80;2.83;;;;;;;;;;5029748;28;98795;-71
2023/06/28 00:55:43;;;;;;;9.82;3.05;;;;;;;;;;5034887;27;100268;-71
2023/06/28 00:58:09;;;;;;;9.60;2.67;;;;;;;;;;5032793;28;98533;-71
2023/06/28 01:00:35;;;;;;;8.35;2.78;;;;;;;;;;5032721;28;99137;-72
2023/06/28 01:03:02;;;;;;;9.68;2.88;;;;;;;;;;5032468;27;99536;-71
2023/06/28 01:05:28;;;;;;;11.15;3.28;;;;;;;;;;5033661;28;97994;-72
2023/06/28 01:07:55;;;;;;;13.18;3.30;;;;;;;;;;5032861;28;98735;-72
2023/06/28 01:10:22;;;;;;;8.07;3.40;;;;;;;;;;5032493;28;98900;-72
2023/06/28 01:12:50;;;;;;;6.07;3.00;;;;;;;;;;5032565;28;99241;-72
2023/06/28 01:15:16;;;;;;;9.48;3.58;;;;;;;;;;5035933;27;100033;-71
2023/06/28 01:17:43;;;;;;;13.15;3.88;;;;;;;;;;5032348;27;98535;-71
2023/06/28 01:20:09;;;;;;;7.70;2.78;;;;;;;;;;5032738;28;100246;-72
2023/06/28 01:22:36;;;;;;;5.47;2.92;;;;;;;;;;5032650;28;100717;-72
2023/06/28 01:25:03;;;;;;;9.77;3.85;;;;;;;;;;5033140;28;98531;-71
2023/06/28 01:27:30;;;;;;;8.57;3.45;;;;;;;;;;5031869;27;99348;-72
2023/06/28 01:29:57;;;;;;;4.88;2.80;;;;;;;;;;5032523;28;98847;-72
2023/06/28 01:32:24;;;;;;;11.75;3.67;;;;;;;;;;5032407;28;99208;-71
2023/06/28 01:34:50;;;;;;;9.68;3.78;;;;;;;;;;5032573;27;99440;-72
2023/06/28 01:37:17;;;;;;;8.48;3.50;;;;;;;;;;5034874;27;100297;-72
2023/06/28 01:39:44;;;;;;;7.97;3.13;;;;;;;;;;5032159;28;99945;-72
2023/06/28 01:42:11;;;;;;;7.55;3.33;;;;;;;;;;5031718;28;99749;-72
2023/06/28 01:44:38;;;;;;;8.30;2.92;;;;;;;;;;5031733;28;99071;-72
2023/06/28 01:47:04;;;;;;;15.10;3.17;;;;;;;;;;5032327;27;99189;-72
2023/06/28 01:49:32;;;;;;;4.88;2.88;;;;;;;;;;5032269;27;100503;-72
2023/06/28 01:51:58;;;;;;;10.50;3.00;;;;;;;;;;5032295;28;98450;-72
2023/06/28 01:54:26;;;;;;;10.07;3.33;;;;;;;;;;5032334;28;99430;-72
2023/06/28 01:56:53;;;;;;;6.95;2.78;;;;;;;;;;5031440;27;100280;-72
2023/06/28 01:59:19;;;;;;;9.27;3.00;;;;;;;;;;5035184;27;98934;-72
2023/06/28 02:01:45;;;;;;;4.53;3.00;;;;;;;;;;5031384;28;101225;-72
2023/06/28 02:04:12;;;;;;;8.88;3.13;;;;;;;;;;5032023;28;98721;-72
2023/06/28 02:06:39;;;;;;;11.05;2.58;;;;;;;;;;5030512;28;99074;-72
2023/06/28 02:09:06;;;;;;;9.65;2.83;;;;;;;;;;5031766;28;99503;-72
2023/06/28 02:11:32;;;;;;;6.28;2.55;;;;;;;;;;5032377;27;98491;-72
2023/06/28 02:13:59;;;;;;;6.22;2.30;;;;;;;;;;5032060;27;100318;-73
2023/06/28 02:16:27;;;;;;;11.25;2.95;;;;;;;;;;5031302;28;99557;-72
2023/06/28 02:18:57;;;;;;;6.55;3.08;;;;;;;;;;5032065;28;97783;-72
2023/06/28 02:21:23;;;;;;;13.65;2.75;;;;;;;;;;5035100;27;99489;-72
2023/06/28 02:23:50;;;;;;;9.55;3.08;;;;;;;;;;5031853;28;99501;-74
2023/06/28 02:26:16;;;;;;;6.65;2.42;;;;;;;;;;5031468;28;100304;-73
2023/06/28 02:28:42;;;;;;;6.50;2.65;;;;;;;;;;5030882;28;100655;-73
2023/06/28 02:31:09;;;;;;;4.63;2.42;;;;;;;;;;5031902;28;98500;-73
2023/06/28 02:33:35;;;;;;;7.97;2.97;;;;;;;;;;5031557;28;99008;-73
2023/06/28 02:36:01;;;;;;;8.27;3.00;;;;;;;;;;5031196;28;99551;-73
2023/06/28 02:38:28;;;;;;;5.60;2.80;;;;;;;;;;5031266;27;98704;-73
2023/06/28 02:40:55;;;;;;;6.40;2.35;;;;;;;;;;5030979;28;99365;-73
2023/06/28 02:43:21;;;;;;;5.18;2.00;;;;;;;;;;5035255;28;98616;-73
2023/06/28 02:45:47;;;;;;;5.85;2.33;;;;;;;;;;5031398;28;98875;-73
2023/06/28 02:48:14;;;;;;;4.32;2.10;;;;;;;;;;5030653;27;99544;-73
2023/06/28 02:50:40;;;;;;;7.80;2.20;;;;;;;;;;5030591;28;100178;-73
2023/06/28 02:53:08;;;;;;;6.72;2.75;;;;;;;;;;5031204;28;100194;-73
2023/06/28 02:55:34;;;;;;;7.75;2.47;;;;;;;;;;5030718;28;100631;-73
2023/06/28 02:58:00;;;;;;;7.15;2.95;;;;;;;;;;5031159;28;98501;-73
2023/06/28 03:00:27;;;;;;;4.57;2.40;;;;;;;;;;5030909;27;99233;-73
2023/06/28 03:02:53;;;;;;;8.23;2.28;;;;;;;;;;5030470;27;100124;-73
2023/06/28 03:05:20;;;;;;;4.40;2.72;;;;;;;;;;5034608;28;99078;-73
2023/06/28 03:07:46;;;;;;;10.07;2.65;;;;;;;;;;5031095;28;98793;-73
2023/06/28 03:10:12;;;;;;;8.00;3.03;;;;;;;;;;5030575;28;98494;-74
2023/06/28 03:12:39;;;;;;;6.20;2.60;;;;;;;;;;5031152;28;100476;-74
2023/06/28 03:15:06;;;;;;;4.60;2.45;;;;;;;;;;5029764;28;100281;-74
2023/06/28 03:17:33;;;;;;;7.43;2.55;;;;;;;;;;5030117;27;98584;-75
2023/06/28 03:19:59;;;;;;;10.30;2.78;;;;;;;;;;5030902;28;99088;-75
2023/06/28 03:22:26;;;;;;;8.82;2.78;;;;;;;;;;5030715;28;100641;-74
2023/06/28 03:24:52;;;;;;;8.07;2.92;;;;;;;;;;5034408;28;98893;-74
2023/06/28 03:27:19;;;;;;;5.28;2.38;;;;;;;;;;5030045;28;99703;-74
2023/06/28 03:29:45;;;;;;;12.02;2.92;;;;;;;;;;5030506;28;99118;-73
2023/06/28 03:32:11;;;;;;;7.07;2.70;;;;;;;;;;5030859;28;99267;-73
2023/06/28 03:34:38;;;;;;;10.55;3.30;;;;;;;;;;5012326;28;99350;-74
2023/06/28 03:37:07;;;;;;;6.55;2.42;;;;;;;;;;5030449;28;98506;-74
2023/06/28 03:39:33;;;;;;;7.60;3.33;;;;;;;;;;5029663;28;99210;-73
2023/06/28 03:41:59;;;;;;;5.47;2.85;;;;;;;;;;5030058;28;99547;-73
2023/06/28 03:44:26;;;;;;;7.63;2.85;;;;;;;;;;5028662;28;98518;-73
2023/06/28 03:46:52;;;;;;;4.80;2.55;;;;;;;;;;5033410;28;99277;-73
2023/06/28 03:49:18;;;;;;;4.65;2.92;;;;;;;;;;5030215;28;98505;-73
2023/06/28 03:51:45;;;;;;;5.95;2.95;;;;;;;;;;5030576;27;102122;-73
2023/06/28 03:54:11;;;;;;;9.18;3.78;;;;;;;;;;5014801;28;99923;-73
2023/06/28 03:56:37;;;;;;;6.85;3.10;;;;;;;;;;5010740;28;97797;-73
2023/06/28 03:59:04;;;;;;;14.00;3.95;;;;;;;;;;5010425;28;98705;-73
2023/06/28 04:01:30;;;;;;;9.48;3.10;;;;;;;;;;5009800;28;100310;-73
2023/06/28 04:03:57;;;;;;;9.65;3.55;;;;;;;;;;5009902;28;99237;-73
2023/06/28 04:06:23;;;;;;;6.82;3.97;;;;;;;;;;5009777;28;99884;-73
2023/06/28 04:08:50;;;;;;;8.75;4.13;;;;;;;;;;5013354;28;100575;-73
2023/06/28 04:11:16;;;;;;;9.23;3.80;;;;;;;;;;5009777;28;99575;-73
2023/06/28 04:13:42;;;;;;;7.57;3.60;;;;;;;;;;5009187;28;99571;-73
2023/06/28 04:16:09;;;;;;;8.98;3.90;;;;;;;;;;5011944;28;98541;-73
2023/06/28 04:18:35;;;;;;;9.80;4.20;;;;;;;;;;5012141;28;103312;-73
2023/06/28 04:21:01;;;;;;;10.75;4.53;;;;;;;;;;5029822;27;97727;-73
2023/06/28 04:23:28;;;;;;;14.60;4.43;;;;;;;;;;5029682;28;98991;-73
2023/06/28 04:25:55;;;;;;;9.98;4.90;;;;;;;;;;5029979;28;99223;-73
2023/06/28 04:28:22;;;;;;;10.45;4.60;;;;;;;;;;5027938;28;100310;-73
2023/06/28 04:30:48;;;;;;;12.25;5.03;;;;;;;;;;5035191;28;98711;-73
2023/06/28 04:33:18;;;;;;;23.90;4.80;;;;;;;;;;5032626;27;99678;-73
2023/06/28 04:35:47;;;;;;;11.68;5.00;;;;;;;;;;5015383;28;98523;-73
2023/06/28 04:38:14;;;;;;;16.63;5.22;;;;;;;;;;5032933;28;99873;-73
2023/06/28 04:40:41;;;;;;;12.18;5.18;;;;;;;;;;5032843;28;99699;-73
2023/06/28 04:43:10;;;;;;;13.73;4.78;;;;;;;;;;5032926;27;98722;-73
2023/06/28 04:45:37;;;;;;;10.80;5.03;;;;;;;;;;5033953;27;100585;-73
2023/06/28 04:48:05;;;;;;;8.73;5.00;;;;;;;;;;5032046;27;99720;-73
2023/06/28 04:50:32;;;;;;;11.25;5.30;;;;;;;;;;5032639;27;98591;-73
2023/06/28 04:52:59;;;;;;;13.95;5.18;;;;;;;;;;5035323;27;99588;-73
2023/06/28 04:55:25;;;;;;;14.35;5.32;;;;;;;;;;5032533;28;98680;-73
2023/06/28 04:57:51;;;;;;;12.65;5.70;;;;;;;;;;5033185;27;100199;-73
2023/06/28 05:00:18;;;;;;;12.93;5.85;;;;;;;;;;5014820;28;100650;-73
2023/06/28 05:02:44;;;;;;;9.95;4.85;;;;;;;;;;5032606;27;98532;-73
2023/06/28 05:05:11;;;;;;;10.52;5.03;;;;;;;;;;5032547;28;99480;-73
2023/06/28 05:07:38;;;;;;;12.98;5.43;;;;;;;;;;5032444;27;99744;-73
2023/06/28 05:10:05;;;;;;;13.27;5.38;;;;;;;;;;5032829;28;98312;-73
2023/06/28 05:12:32;;;;;;;11.55;5.07;;;;;;;;;;5032361;28;98563;-73
2023/06/28 05:14:58;;;;;;;13.80;5.80;;;;;;;;;;5034939;27;99530;-72
2023/06/28 05:17:25;;;;;;;15.23;6.10;;;;;;;;;;5031747;27;99695;-73
2023/06/28 05:19:51;;;;;;;21.08;6.10;;;;;;;;;;5032041;27;99399;-72
2023/06/28 05:22:21;;;;;;;18.90;6.32;;;;;;;;;;5032224;28;98558;-73
2023/06/28 05:24:48;;;;;;;13.00;5.93;;;;;;;;;;5032161;28;99537;-73
2023/06/28 05:27:14;;;;;;;18.25;6.53;;;;;;;;;;5031825;27;99363;-73
2023/06/28 05:29:41;;;;;;;21.75;6.60;;;;;;;;;;5032330;27;99057;-73
2023/06/28 05:32:07;;;;;;;13.55;6.10;;;;;;;;;;5032324;28;99278;-73
2023/06/28 05:34:34;;;;;;;14.65;6.32;;;;;;;;;;5036403;27;98319;-73
2023/06/28 05:37:00;;;;;;;20.75;7.20;;;;;;;;;;5032494;27;98523;-72
2023/06/28 05:39:26;;;;;;;18.13;7.05;;;;;;;;;;5031733;28;99436;-72
2023/06/28 05:41:53;;;;;;;16.95;6.82;;;;;;;;;;5031679;27;99245;-73
2023/06/28 05:44:21;;;;;;;13.82;6.70;;;;;;;;;;5031289;28;100071;-72
2023/06/28 05:46:47;;;;;;;14.02;6.60;;;;;;;;;;5032005;28;100563;-73
2023/06/28 05:49:14;;;;;;;16.08;6.85;;;;;;;;;;5031890;28;98503;-72
2023/06/28 05:51:40;;;;;;;20.52;7.00;;;;;;;;;;5032032;28;99377;-73
2023/06/28 05:54:06;;;;;;;18.13;6.82;;;;;;;;;;5031346;27;99563;-73
2023/06/28 05:56:33;;;;;;;15.15;6.78;;;;;;;;;;5035201;27;98698;-72
2023/06/28 05:58:59;;;;;;;21.05;7.53;;;;;;;;;;5031844;28;98768;-73
2023/06/28 06:01:26;;;;;;;19.02;7.85;;;;;;;;;;5031701;28;98767;-72
2023/06/28 06:03:52;;;;;;;15.55;7.18;;;;;;;;;;5014020;28;100431;-72
2023/06/28 06:06:19;;;;;;;16.67;7.43;;;;;;;;;;5030470;28;100535;-72
2023/06/28 06:08:45;;;;;;;21.63;7.40;;;;;;;;;;5031871;28;98824;-74
2023/06/28 06:11:11;;;;;;;18.02;7.97;;;;;;;;;;5031358;28;99812;-72
2023/06/28 06:13:38;;;;;;;18.05;7.75;;;;;;;;;;5031073;28;99841;-72
2023/06/28 06:16:04;;;;;;;18.70;8.18;;;;;;;;;;5031710;28;98565;-74
2023/06/28 06:18:30;;;;;;;16.63;7.90;;;;;;;;;;5034910;28;99371;-73
2023/06/28 06:20:57;;;;;;;22.50;8.27;;;;;;;;;;5031466;27;98892;-73
2023/06/28 06:23:23;;;;;;;18.90;8.27;;;;;;;;;;5032042;28;99273;-73
2023/06/28 06:25:50;;;;;;;21.63;8.27;;;;;;;;;;5030347;27;99582;-73
2023/06/28 06:28:16;;;;;;;22.33;8.70;;;;;;;;;;5031516;27;98538;-73
2023/06/28 06:30:42;;;;;;;20.00;9.05;;;;;;;;;;5030811;28;99636;-73
2023/06/28 06:33:10;;;;;;;17.60;8.65;;;;;;;;;;5031156;28;101654;-73
2023/06/28 06:35:36;;;;;;;14.30;8.35;;;;;;;;;;5013735;28;98535;-72
2023/06/28 06:38:03;;;;;;;20.02;8.02;;;;;;;;;;5031418;28;99387;-72
2023/06/28 06:40:29;;;;;;;18.92;8.45;;;;;;;;;;5033545;28;100076;-71
2023/06/28 06:42:55;;;;;;;23.88;8.80;;;;;;;;;;5031111;28;99854;-72
2023/06/28 06:45:22;;;;;;;17.80;8.85;;;;;;;;;;5012947;28;100551;-72
2023/06/28 06:47:48;;;;;;;17.27;8.85;;;;;;;;;;5031563;27;97761;-72
2023/06/28 06:50:17;;;;;;;17.65;8.48;;;;;;;;;;5030831;28;98601;-72
2023/06/28 06:52:44;;;;;;;20.17;9.18;;;;;;;;;;5029568;27;99599;-71
2023/06/28 06:55:10;;;;;;;23.45;9.10;;;;;;;;;;5029996;27;99284;-73
2023/06/28 06:57:36;;;;;;;18.40;8.98;;;;;;;;;;5031008;28;100042;-71
2023/06/28 07:00:04;;;;;;;21.23;9.38;;;;;;;;;;5030413;28;99549;-74
2023/06/28 07:02:30;;;;;;;17.88;8.77;;;;;;;;;;5033957;27;98473;-72
2023/06/28 07:04:57;;;;;;;20.95;8.85;;;;;;;;;;5030178;28;99857;-72
2023/06/28 07:07:23;;;;;;;18.45;8.48;;;;;;;;;;5031319;28;98503;-72
2023/06/28 07:09:49;;;;;;;20.27;9.00;;;;;;;;;;5030260;28;99189;-72
2023/06/28 07:12:16;;;;;;;18.73;9.00;;;;;;;;;;5030727;28;98965;-72
2023/06/28 07:14:42;;;;;;;21.52;9.20;;;;;;;;;;5030991;28;98475;-72
2023/06/28 07:17:09;;;;;;;23.33;8.98;;;;;;;;;;5012622;28;99216;-73
2023/06/28 07:19:35;;;;;;;27.48;10.07;;;;;;;;;;5029580;28;100525;-73
2023/06/28 07:22:02;;;;;;;20.27;8.70;;;;;;;;;;5029390;28;98568;-72
2023/06/28 07:24:28;;;;;;;16.40;8.77;;;;;;;;;;5033877;28;100379;-72
2023/06/28 07:26:55;;;;;;;20.10;8.93;;;;;;;;;;5030971;28;98545;-73
2023/06/28 07:29:21;;;;;;;26.25;9.02;;;;;;;;;;5030067;28;99648;-72
2023/06/28 07:31:47;;;;;;;18.17;8.85;;;;;;;;;;5030509;28;100618;-72
2023/06/28 07:34:14;;;;;;;16.55;8.60;;;;;;;;;;5030297;28;98498;-72
2023/06/28 07:36:41;;;;;;;23.45;9.02;;;;;;;;;;5031103;28;100463;-72
2023/06/28 07:39:09;;;;;;;17.85;8.77;;;;;;;;;;5012137;28;99537;-72
2023/06/28 07:41:35;;;;;;;23.02;9.02;;;;;;;;;;5029942;28;98483;-72
2023/06/28 07:44:02;;;;;;;18.58;9.07;;;;;;;;;;5032687;28;99356;-73
2023/06/28 07:46:29;;;;;;;18.02;8.05;;;;;;;;;;5029954;27;98756;-73
2023/06/28 07:48:56;;;;;;;17.83;7.68;;;;;;;;;;5030773;28;101040;-72
2023/06/28 07:51:23;;;;;;;21.88;8.02;;;;;;;;;;5029913;28;99556;-73
2023/06/28 07:53:49;;;;;;;18.48;8.48;;;;;;;;;;5030044;27;98569;-72
2023/06/28 07:56:16;;;;;;;18.23;8.02;;;;;;;;;;5030104;28;99239;-72
2023/06/28 07:58:42;;;;;;;30.27;8.88;;;;;;;;;;5029766;27;99673;-72
2023/06/28 08:01:09;;;;;;;17.92;7.05;;;;;;;;;;5030123;28;97789;-72
2023/06/28 08:03:35;;;;;;;15.73;7.53;;;;;;;;;;5012604;28;98587;-72
2023/06/28 08:06:02;;;;;;;23.23;8.75;;;;;;;;;;5014823;28;99497;-72
2023/06/28 08:08:28;;;;;;;19.95;8.27;;;;;;;;;;5029464;27;99563;-72
2023/06/28 08:10:55;;;;;;;20.80;8.40;;;;;;;;;;5030076;28;99505;-72
2023/06/28 08:13:21;;;;;;;19.05;7.95;;;;;;;;;;5029910;28;98520;-72
2023/06/28 08:15:47;;;;;;;22.10;8.30;;;;;;;;;;5030202;28;100252;-72
2023/06/28 08:18:16;;;;;;;19.33;8.32;;;;;;;;;;5029237;28;99691;-72
2023/06/28 08:20:44;;;;;;;15.68;8.77;;;;;;;;;;5029793;28;98906;-72
2023/06/28 08:23:10;;;;;;;18.60;9.13;;;;;;;;;;5029519;28;98483;-72
2023/06/28 08:25:37;;;;;;;21.45;8.00;;;;;;;;;;5030218;28;99901;-72
2023/06/28 08:28:03;;;;;;;22.98;9.45;;;;;;;;;;5032275;28;98840;-72
2023/06/28 08:30:29;;;;;;;15.60;8.35;;;;;;;;;;5029260;28;99688;-72
2023/06/28 08:32:56;;;;;;;21.00;9.13;;;;;;;;;;5029311;27;99234;-72
2023/06/28 08:35:23;;;;;;;19.00;8.45;;;;;;;;;;5029803;28;100925;-72
2023/06/28 08:37:49;;;;;;;17.90;8.05;;;;;;;;;;5028903;28;99879;-72
2023/06/28 08:40:16;;;;;;;23.30;8.50;;;;;;;;;;5029434;28;98561;-72
2023/06/28 08:42:44;;;;;;;23.00;8.57;;;;;;;;;;5029873;28;100007;-72
2023/06/28 08:45:11;;;;;;;14.43;8.82;;;;;;;;;;5028636;28;99784;-72
2023/06/28 08:47:38;;;;;;;19.02;8.75;;;;;;;;;;5029238;28;98594;-72
2023/06/28 08:50:05;;;;;;;22.45;9.07;;;;;;;;;;5032753;28;99144;-72
2023/06/28 08:52:33;;;;;;;20.70;9.20;;;;;;;;;;5029716;28;98506;-72
2023/06/28 08:54:59;;;;;;;17.95;8.98;;;;;;;;;;5029599;28;100861;-72
2023/06/28 08:57:25;;;;;;;23.17;10.13;;;;;;;;;;5028437;28;100624;-72
2023/06/28 08:59:52;;;;;;;25.48;8.32;;;;;;;;;;5028550;28;98504;-72
2023/06/28 09:02:19;;;;;;;16.30;9.40;;;;;;;;;;5028989;27;99248;-72
2023/06/28 09:04:47;;;;;;;28.25;9.38;;;;;;;;;;5028642;28;99710;-72
2023/06/28 09:07:15;;;;;;;27.15;9.10;;;;;;;;;;5029076;28;98521;-72
2023/06/28 09:09:42;;;;;;;18.45;9.05;;;;;;;;;;5029163;27;99687;-72
2023/06/28 09:12:09;;;;;;;24.27;9.00;;;;;;;;;;5032369;28;100600;-72
2023/06/28 09:14:35;;;;;;;15.95;8.45;;;;;;;;;;5029149;28;99569;-72
2023/06/28 09:17:02;;;;;;;21.75;9.18;;;;;;;;;;5031132;27;99563;-72
2023/06/28 09:19:28;;;;;;;19.55;9.18;;;;;;;;;;5032581;28;98490;-72
2023/06/28 09:22:00;;;;;;;22.35;9.48;;;;;;;;;;5031866;27;99746;-72
2023/06/28 09:24:31;;;;;;;14.93;7.85;;;;;;;;;;5032423;28;99617;-72
2023/06/28 09:27:00;;;;;;;19.10;8.90;;;;;;;;;;5032448;28;98543;-72
2023/06/28 09:29:27;;;;;;;23.20;7.97;;;;;;;;;;5032586;28;100198;-72
2023/06/28 09:31:53;;;;;;;21.83;7.80;;;;;;;;;;5031619;27;99835;-72
2023/06/28 09:34:23;;;;;;;17.52;8.82;;;;;;;;;;5035552;28;98526;-72
2023/06/28 09:36:53;;;;;;;18.38;8.00;;;;;;;;;;5031837;27;99831;-72
2023/06/28 09:39:20;;;;;;;19.30;8.73;;;;;;;;;;5032551;27;97771;-72
2023/06/28 09:41:48;;;;;;;19.15;8.50;;;;;;;;;;5032521;28;99325;-72
2023/06/28 09:44:15;;;;;;;24.00;8.05;;;;;;;;;;5031396;28;99645;-72
2023/06/28 09:46:42;;;;;;;19.45;7.90;;;;;;;;;;5031388;28;99253;-72
2023/06/28 09:49:29;;;;;;;17.98;8.02;;;;;;;;;;5032025;27;100097;-72
2023/06/28 09:52:06;;;;;;;16.48;8.25;;;;;;;;;;5031519;28;99722;-72
2023/06/28 09:54:34;;;;;;;21.52;8.45;;;;;;;;;;5035038;28;98860;-72
2023/06/28 09:57:01;;;;;;;14.27;7.40;;;;;;;;;;5031393;27;99545;-72
2023/06/28 09:59:28;;;;;;;19.70;8.35;;;;;;;;;;5031549;27;98467;-72
2023/06/28 10:02:04;;;;;;;19.45;8.73;;;;;;;;;;5031526;28;99502;-72
2023/06/28 10:04:32;;;;;;;22.83;8.32;;;;;;;;;;5031972;27;99570;-73
2023/06/28 10:07:00;;;;;;;19.35;8.63;;;;;;;;;;5032251;27;98541;-72
2023/06/28 10:09:29;;;;;;;19.17;9.30;;;;;;;;;;5032277;28;99237;-72
2023/06/28 10:11:56;;;;;;;18.73;8.63;;;;;;;;;;5030966;28;101573;-72
2023/06/28 10:14:24;;;;;;;16.85;8.95;;;;;;;;;;5031706;27;98706;-72
2023/06/28 10:16:53;;;;;;;19.63;9.25;;;;;;;;;;5034451;28;99375;-72
2023/06/28 10:19:19;;;;;;;20.45;9.50;;;;;;;;;;5031286;28;98639;-72
2023/06/28 10:21:46;;;;;;;19.10;9.75;;;;;;;;;;5031332;28;99409;-72
2023/06/28 10:24:12;;;;;;;22.65;9.20;;;;;;;;;;5030006;27;99761;-72
2023/06/28 10:26:41;;;;;;;20.13;9.02;;;;;;;;;;5030991;27;98494;-73
2023/06/28 10:29:07;;;;;;;23.15;9.02;;;;;;;;;;5030869;28;99173;-73
2023/06/28 10:31:33;;;;;;;19.02;8.90;;;;;;;;;;5012993;28;98548;-73
2023/06/28 10:34:00;;;;;;;27.25;9.93;;;;;;;;;;5030832;28;98526;-73
2023/06/28 10:36:27;;;;;;;20.85;9.30;;;;;;;;;;5030827;28;99210;-73
2023/06/28 10:38:53;;;;;;;31.58;11.63;;;;;;;;;;5034108;27;99580;-73
2023/06/28 10:41:21;;;;;;;18.45;9.82;;;;;;;;;;5030665;28;100247;-73
2023/06/28 10:43:47;;;;;;;15.75;9.27;;;;;;;;;;5030664;27;99396;-73
2023/06/28 10:46:21;;;;;;;22.55;9.90;;;;;;;;;;5030843;28;98525;-73
2023/06/28 10:48:51;;;;;;;21.17;10.23;;;;;;;;;;5030987;27;99187;-73
2023/06/28 10:51:19;;;;;;;20.87;10.27;;;;;;;;;;5028856;28;98854;-73
2023/06/28 10:53:53;;;;;;;24.42;10.52;;;;;;;;;;5030552;28;98023;-73
2023/06/28 10:56:20;;;;;;;20.17;10.98;;;;;;;;;;5030268;27;98912;-73
2023/06/28 10:58:47;;;;;;;23.00;10.65;;;;;;;;;;5029700;27;99396;-73
2023/06/28 11:01:34;;;;;;;21.75;10.88;;;;;;;;;;5032721;28;99340;-73
2023/06/28 11:04:16;;;;;;;18.55;10.50;;;;;;;;;;5029446;28;99896;-73
2023/06/28 11:06:42;;;;;;;18.48;10.05;;;;;;;;;;5030721;28;98519;-73
2023/06/28 11:09:13;;;;;;;23.60;11.52;;;;;;;;;;5029674;27;99278;-73
2023/06/28 11:11:41;;;;;;;19.73;11.85;;;;;;;;;;5029697;28;99523;-73
2023/06/28 11:14:19;;;;;;;20.15;11.60;;;;;;;;;;5029700;28;98525;-73
2023/06/28 11:16:49;;;;;;;26.35;13.18;;;;;;;;;;5029646;28;99758;-73
2023/06/28 11:19:18;;;;;;;22.73;12.23;;;;;;;;;;5029802;27;98805;-73
2023/06/28 11:21:49;;;;;;;28.05;12.63;;;;;;;;;;5029713;28;98817;-74
2023/06/28 11:24:24;;;;;;;26.63;13.68;;;;;;;;;;5032417;28;99483;-74
2023/06/28 11:26:50;;;;;;;29.60;12.93;;;;;;;;;;5029796;27;99202;-73
2023/06/28 11:29:17;;;;;;;29.00;12.73;;;;;;;;;;5029524;28;100214;-73
2023/06/28 11:31:48;;;;;;;30.95;12.85;;;;;;;;;;5029283;28;99478;-73
2023/06/28 11:34:15;;;;;;;31.00;14.45;;;;;;;;;;5029090;27;98538;-74
2023/06/28 11:36:42;;;;;;;26.90;13.88;;;;;;;;;;5029705;28;99457;-73
2023/06/28 11:39:09;;;;;;;29.50;14.15;;;;;;;;;;5029268;27;100866;-74
2023/06/28 11:41:35;;;;;;;23.00;13.60;;;;;;;;;;5029360;28;98485;-74
2023/06/28 11:44:04;;;;;;;27.50;13.38;;;;;;;;;;5032803;28;99283;-74
2023/06/28 11:46:33;;;;;;;25.55;14.10;;;;;;;;;;5029236;28;98480;-74
2023/06/28 11:49:00;;;;;;;28.37;14.27;;;;;;;;;;5029032;28;99271;-74
2023/06/28 11:51:26;;;;;;;28.77;13.27;;;;;;;;;;5028780;28;100790;-73
2023/06/28 11:53:55;;;;;;;26.95;13.82;;;;;;;;;;5029683;28;98781;-73
2023/06/28 11:56:33;;;;;;;23.73;13.18;;;;;;;;;;5011584;28;99454;-74
2023/06/28 11:59:10;;;;;;;25.95;13.48;;;;;;;;;;5029433;28;100590;-73
2023/06/28 12:01:36;;;;;;;26.13;13.90;;;;;;;;;;5029153;28;98760;-74
2023/06/28 12:04:12;;;;;;;26.48;13.85;;;;;;;;;;5029078;28;99318;-74
2023/06/28 12:06:39;;;;;;;26.83;14.32;;;;;;;;;;5032258;28;99482;-74
2023/06/28 12:09:16;;;;;;;33.47;14.63;;;;;;;;;;5029910;28;100433;-74
2023/06/28 12:11:50;;;;;;;33.58;14.15;;;;;;;;;;5010762;28;99379;-74
2023/06/28 12:14:16;;;;;;;26.75;14.48;;;;;;;;;;5028826;28;98556;-74
2023/06/28 12:16:45;;;;;;;31.83;15.45;;;;;;;;;;5028266;28;99327;-74
2023/06/28 12:19:14;;;;;;;24.55;14.88;;;;;;;;;;5028920;28;100505;-74
2023/06/28 12:21:40;;;;;;;29.38;15.32;;;;;;;;;;5028964;28;98991;-74
2023/06/28 12:24:24;;;;;;;23.23;14.13;;;;;;;;;;5010803;28;99731;-74
2023/06/28 12:26:51;;;;;;;30.40;14.05;;;;;;;;;;5029250;28;100524;-74
2023/06/28 12:29:21;;;;;;;29.08;14.18;;;;;;;;;;5031471;28;98528;-74
2023/06/28 12:31:48;;;;;;;32.58;16.23;;;;;;;;;;5028654;28;99694;-74
2023/06/28 12:34:25;;;;;;;28.42;15.95;;;;;;;;;;5029281;28;97740;-74
2023/06/28 12:36:53;;;;;;;27.23;14.70;;;;;;;;;;5028739;28;98552;-74
2023/06/28 12:39:20;;;;;;;31.98;15.30;;;;;;;;;;5028249;28;99530;-74
2023/06/28 12:41:58;;;;;;;28.13;15.00;;;;;;;;;;5028449;28;99530;-74
2023/06/28 12:44:25;;;;;;;27.90;15.65;;;;;;;;;;5010165;28;100167;-74
2023/06/28 12:46:51;;;;;;;27.15;14.30;;;;;;;;;;5028446;28;99898;-74
2023/06/28 12:49:17;;;;;;;29.73;15.65;;;;;;;;;;5027050;28;98524;-74
2023/06/28 12:51:47;;;;;;;29.45;14.65;;;;;;;;;;5034290;27;99288;-74
2023/06/28 12:54:14;;;;;;;26.58;15.07;;;;;;;;;;5031793;28;98537;-74
2023/06/28 12:56:40;;;;;;;29.98;15.98;;;;;;;;;;5014096;28;99445;-74
2023/06/28 12:59:07;;;;;;;24.45;15.05;;;;;;;;;;5032601;27;99796;-74
2023/06/28 13:01:33;;;;;;;34.30;16.30;;;;;;;;;;5032150;28;98538;-74
2023/06/28 13:04:00;;;;;;;27.95;15.68;;;;;;;;;;5031642;27;99607;-74
2023/06/28 13:06:26;;;;;;;36.35;15.30;;;;;;;;;;5031405;28;100259;-74
2023/06/28 13:08:52;;;;;;;32.55;15.60;;;;;;;;;;5031688;27;98859;-74
2023/06/28 13:11:19;;;;;;;31.08;16.25;;;;;;;;;;5032324;27;99047;-74
2023/06/28 13:13:45;;;;;;;30.88;15.95;;;;;;;;;;5034664;28;99895;-74
2023/06/28 13:16:12;;;;;;;38.20;15.52;;;;;;;;;;5031420;27;99246;-74
2023/06/28 13:18:38;;;;;;;28.33;15.68;;;;;;;;;;5031468;27;99579;-74
2023/06/28 13:21:05;;;;;;;32.42;15.93;;;;;;;;;;5031929;28;98689;-74
2023/06/28 13:23:31;;;;;;;30.75;16.13;;;;;;;;;;5032080;27;99691;-74
2023/06/28 13:25:59;;;;;;;25.75;14.00;;;;;;;;;;5031278;27;99471;-74
2023/06/28 13:28:26;;;;;;;30.23;15.52;;;;;;;;;;5031560;28;98522;-74
2023/06/28 13:30:53;;;;;;;30.08;15.80;;;;;;;;;;5030800;27;99238;-74
2023/06/28 13:33:19;;;;;;;24.27;14.90;;;;;;;;;;5031492;27;100784;-74
2023/06/28 13:35:45;;;;;;;33.17;16.48;;;;;;;;;;5035624;27;98513;-74
2023/06/28 13:38:12;;;;;;;28.88;15.15;;;;;;;;;;5031740;28;100460;-74
2023/06/28 13:40:39;;;;;;;33.20;15.35;;;;;;;;;;5031779;28;98766;-74
2023/06/28 13:43:07;;;;;;;30.35;16.15;;;;;;;;;;5013769;28;100368;-74
2023/06/28 13:45:33;;;;;;;31.63;16.35;;;;;;;;;;5030415;28;99673;-74
2023/06/28 13:48:00;;;;;;;34.63;16.48;;;;;;;;;;5031641;27;97746;-74
2023/06/28 13:50:27;;;;;;;27.27;15.55;;;;;;;;;;5031363;28;98662;-75
2023/06/28 13:52:53;;;;;;;29.05;15.32;;;;;;;;;;5013093;28;99506;-74
2023/06/28 13:55:20;;;;;;;31.05;15.60;;;;;;;;;;5016267;28;99762;-74
2023/06/28 13:57:46;;;;;;;36.33;15.45;;;;;;;;;;5031347;28;100511;-74
2023/06/28 14:00:13;;;;;;;27.92;14.98;;;;;;;;;;5030909;27;98489;-74
2023/06/28 14:02:40;;;;;;;25.67;13.65;;;;;;;;;;5031537;27;100762;-74
2023/06/28 14:05:07;;;;;;;35.33;14.82;;;;;;;;;;5030567;28;99593;-74
2023/06/28 14:07:33;;;;;;;30.02;15.50;;;;;;;;;;5030821;27;98924;-74
2023/06/28 14:10:02;;;;;;;28.50;14.77;;;;;;;;;;5030613;28;99251;-74
2023/06/28 14:12:29;;;;;;;27.88;15.13;;;;;;;;;;5030697;28;97775;-74
2023/06/28 14:14:55;;;;;;;34.65;15.55;;;;;;;;;;5030407;27;98519;-74
2023/06/28 14:17:22;;;;;;;24.70;14.23;;;;;;;;;;5015894;28;99335;-74
2023/06/28 14:19:48;;;;;;;23.83;14.50;;;;;;;;;;5030487;28;99233;-74
2023/06/28 14:22:14;;;;;;;30.77;15.13;;;;;;;;;;5030630;28;100224;-74
2023/06/28 14:24:41;;;;;;;29.27;14.93;;;;;;;;;;5030048;28;99637;-74
2023/06/28 14:27:07;;;;;;;31.95;15.98;;;;;;;;;;5013068;28;98673;-74